createdAt,value
2018-07-16T00:00:29.519Z,19.89
2018-07-16T00:02:58.351Z,20.18
2018-07-16T00:05:27.171Z,19.93
2018-07-16T00:07:56.052Z,19.85
2018-07-16T00:10:24.930Z,19.89
2018-07-16T00:12:53.811Z,19.90
2018-07-16T00:15:22.621Z,19.86
2018-07-16T00:17:51.502Z,19.74
2018-07-16T00:20:20.329Z,19.71
2018-07-16T00:22:49.179Z,19.69
2018-07-16T00:25:18.020Z,19.63
2018-07-16T00:27:46.860Z,19.60
2018-07-16T00:31:10.276Z,19.56
2018-07-16T00:33:39.126Z,19.50
2018-07-16T00:36:07.993Z,19.47
2018-07-16T00:38:36.853Z,19.45
2018-07-16T00:41:05.667Z,19.73
2018-07-16T00:43:34.493Z,19.50
2018-07-16T00:46:03.319Z,19.47
2018-07-16T00:48:32.168Z,19.41
2018-07-16T00:51:00.995Z,19.68
2018-07-16T00:57:17.853Z,19.29
2018-07-16T00:59:46.666Z,19.26
2018-07-16T01:02:15.544Z,19.24
2018-07-16T01:04:44.386Z,19.23
2018-07-16T01:07:13.287Z,19.19
2018-07-16T01:09:42.121Z,19.13
2018-07-16T01:12:11.066Z,19.11
2018-07-16T01:14:39.912Z,19.13
2018-07-16T01:17:08.931Z,19.11
2018-07-16T01:19:37.777Z,19.10
2018-07-16T01:22:06.605Z,19.05
2018-07-16T01:24:35.489Z,19.06
2018-07-16T01:27:04.346Z,19.01
2018-07-16T01:29:33.210Z,18.96
2018-07-16T01:32:02.079Z,18.94
2018-07-16T01:34:30.931Z,18.93
2018-07-16T01:36:59.751Z,18.91
2018-07-16T01:39:28.759Z,18.84
2018-07-16T01:41:57.573Z,18.78
2018-07-16T01:44:26.422Z,18.74
2018-07-16T01:46:55.286Z,18.69
2018-07-16T01:49:24.105Z,18.66
2018-07-16T01:51:52.967Z,18.63
2018-07-16T01:54:21.768Z,18.67
2018-07-16T01:56:50.734Z,18.67
2018-07-16T01:59:19.611Z,18.63
2018-07-16T02:01:48.454Z,18.64
2018-07-16T02:04:17.276Z,18.64
2018-07-16T02:06:46.133Z,18.57
2018-07-16T02:09:14.950Z,18.54
2018-07-16T02:11:43.798Z,18.50
2018-07-16T02:14:12.673Z,18.39
2018-07-16T02:16:41.516Z,18.36
2018-07-16T02:19:10.390Z,18.35
2018-07-16T02:21:39.253Z,18.33
2018-07-16T02:24:08.156Z,18.22
2018-07-16T02:26:37.020Z,18.26
2018-07-16T02:29:06.076Z,18.24
2018-07-16T02:31:34.907Z,18.17
2018-07-16T02:34:03.776Z,18.18
2018-07-16T02:36:32.631Z,18.18
2018-07-16T02:39:01.472Z,18.21
2018-07-16T02:41:30.315Z,18.25
2018-07-16T02:43:59.168Z,18.19
2018-07-16T02:46:28.191Z,18.23
2018-07-16T02:48:57.074Z,18.50
2018-07-16T02:51:25.911Z,18.61
2018-07-16T02:53:54.787Z,18.35
2018-07-16T02:56:23.756Z,18.31
2018-07-16T02:58:52.493Z,18.28
2018-07-16T03:01:21.331Z,18.20
2018-07-16T03:03:50.144Z,18.14
2018-07-16T03:06:19.005Z,18.10
2018-07-16T03:08:49.235Z,18.08
2018-07-16T03:11:18.088Z,18.08
2018-07-16T03:13:46.916Z,18.07
2018-07-16T03:16:15.776Z,18.05
2018-07-16T03:18:44.587Z,17.99
2018-07-16T03:21:13.422Z,17.96
2018-07-16T03:23:42.355Z,17.93
2018-07-16T03:26:11.191Z,17.89
2018-07-16T03:28:40.064Z,17.87
2018-07-16T03:31:15.121Z,17.88
2018-07-16T03:33:43.966Z,17.84
2018-07-16T03:36:12.804Z,17.81
2018-07-16T03:38:41.644Z,18.11
2018-07-16T03:41:10.502Z,17.86
2018-07-16T03:43:39.394Z,17.85
2018-07-16T03:46:08.212Z,17.84
2018-07-16T03:48:37.060Z,17.84
2018-07-16T03:51:05.911Z,17.83
2018-07-16T03:54:29.606Z,17.82
2018-07-16T03:56:58.370Z,17.78
2018-07-16T03:59:27.249Z,17.81
2018-07-16T04:01:56.111Z,17.83
2018-07-16T04:04:24.931Z,17.83
2018-07-16T04:06:53.791Z,17.86
2018-07-16T04:09:22.632Z,17.83
2018-07-16T04:11:51.511Z,17.81
2018-07-16T04:14:20.331Z,17.74
2018-07-16T04:16:52.064Z,17.74
2018-07-16T04:19:20.935Z,17.70
2018-07-16T04:21:49.803Z,17.71
2018-07-16T04:24:18.625Z,17.79
2018-07-16T04:26:47.496Z,17.87
2018-07-16T04:29:16.325Z,17.90
2018-07-16T04:31:45.162Z,18.21
2018-07-16T04:34:13.994Z,18.04
2018-07-16T04:36:42.826Z,17.95
2018-07-16T04:39:11.870Z,17.97
2018-07-16T04:41:40.723Z,17.95
2018-07-16T04:44:09.584Z,17.95
2018-07-16T04:46:38.422Z,17.97
2018-07-16T04:49:07.279Z,18.01
2018-07-16T04:51:36.141Z,18.35
2018-07-16T04:54:05.094Z,18.21
2018-07-16T04:56:33.962Z,18.31
2018-07-16T04:59:02.783Z,18.39
2018-07-16T05:01:31.599Z,18.43
2018-07-16T05:04:00.414Z,18.77
2018-07-16T05:06:29.263Z,18.64
2018-07-16T05:08:58.109Z,18.69
2018-07-16T05:11:27.024Z,18.74
2018-07-16T05:13:55.871Z,18.79
2018-07-16T05:16:24.717Z,18.83
2018-07-16T05:18:53.564Z,18.87
2018-07-16T05:21:22.452Z,18.97
2018-07-16T05:24:09.343Z,19.05
2018-07-16T05:26:38.116Z,19.15
2018-07-16T05:29:06.999Z,19.23
2018-07-16T05:31:35.904Z,19.27
2018-07-16T05:34:04.702Z,19.36
2018-07-16T05:36:33.551Z,19.47
2018-07-16T05:39:02.374Z,19.56
2018-07-16T05:41:31.232Z,19.66
2018-07-16T05:44:00.116Z,19.76
2018-07-16T05:46:29.023Z,20.16
2018-07-16T05:48:57.887Z,20.43
2018-07-16T05:51:26.703Z,20.39
2018-07-16T05:53:55.534Z,20.52
2018-07-16T05:56:24.377Z,20.70
2018-07-16T05:58:53.233Z,20.88
2018-07-16T06:01:22.292Z,21.16
2018-07-16T06:03:51.152Z,21.47
2018-07-16T06:06:20.000Z,21.82
2018-07-16T06:08:48.863Z,22.19
2018-07-16T06:11:17.691Z,22.53
2018-07-16T06:13:46.508Z,22.94
2018-07-16T06:16:15.353Z,23.37
2018-07-16T06:18:44.183Z,23.82
2018-07-16T06:21:13.061Z,24.23
2018-07-16T06:23:41.906Z,24.65
2018-07-16T06:26:10.742Z,25.18
2018-07-16T06:28:39.599Z,26.12
2018-07-16T06:31:08.423Z,28.70
2018-07-16T06:33:37.292Z,31.00
2018-07-16T06:36:06.102Z,32.50
2018-07-16T06:38:34.938Z,33.83
2018-07-16T06:41:04.106Z,34.07
2018-07-16T06:43:32.941Z,35.32
2018-07-16T06:46:01.855Z,35.74
2018-07-16T06:48:30.703Z,36.77
2018-07-16T06:50:59.567Z,37.35
2018-07-16T06:54:23.084Z,37.80
2018-07-16T06:56:51.919Z,37.79
2018-07-16T06:59:20.737Z,38.46
2018-07-16T07:01:49.562Z,39.23
2018-07-16T07:04:18.428Z,39.04
2018-07-16T07:06:47.244Z,39.42
2018-07-16T07:09:16.105Z,39.37
2018-07-16T07:11:44.908Z,39.86
2018-07-16T07:14:13.782Z,40.38
2018-07-16T07:16:43.876Z,40.86
2018-07-16T07:19:12.767Z,40.79
2018-07-16T07:21:41.601Z,40.62
2018-07-16T07:24:10.422Z,41.10
2018-07-16T07:26:39.255Z,41.38
2018-07-16T07:29:08.080Z,41.28
2018-07-16T07:31:36.920Z,41.64
2018-07-16T07:34:05.752Z,41.69
2018-07-16T07:36:34.611Z,41.09
2018-07-16T07:39:05.982Z,41.30
2018-07-16T07:41:34.835Z,41.36
2018-07-16T07:44:03.674Z,41.81
2018-07-16T07:46:32.536Z,41.57
2018-07-16T07:49:01.756Z,42.21
2018-07-16T07:51:30.724Z,42.53
2018-07-16T07:53:59.596Z,42.37
2018-07-16T07:56:28.479Z,43.12
2018-07-16T07:58:57.298Z,42.92
2018-07-16T08:01:29.142Z,42.63
2018-07-16T08:03:58.025Z,42.92
2018-07-16T08:06:26.843Z,43.15
2018-07-16T08:08:55.663Z,43.25
2018-07-16T08:11:24.526Z,43.08
2018-07-16T08:13:53.397Z,42.64
2018-07-16T08:16:22.207Z,42.88
2018-07-16T08:18:51.040Z,42.93
2018-07-16T08:21:19.877Z,43.13
2018-07-16T08:23:54.934Z,43.50
2018-07-16T08:26:23.760Z,43.61
2018-07-16T08:28:52.605Z,44.04
2018-07-16T08:31:21.510Z,42.67
2018-07-16T08:33:50.345Z,43.38
2018-07-16T08:36:19.150Z,41.97
2018-07-16T08:38:48.024Z,42.76
2018-07-16T08:41:16.857Z,42.81
2018-07-16T08:43:45.651Z,42.85
2018-07-16T08:46:14.528Z,43.15
2018-07-16T08:48:43.325Z,43.17
2018-07-16T08:51:12.172Z,43.29
2018-07-16T08:53:40.988Z,43.43
2018-07-16T08:56:09.946Z,43.46
2018-07-16T08:58:38.764Z,43.63
2018-07-16T09:01:07.584Z,44.31
2018-07-16T09:03:36.426Z,43.51
2018-07-16T09:06:06.288Z,44.24
2018-07-16T09:08:36.192Z,44.58
2018-07-16T09:11:05.173Z,44.34
2018-07-16T09:13:34.048Z,44.47
2018-07-16T09:16:02.848Z,43.93
2018-07-16T09:18:31.661Z,43.51
2018-07-16T09:21:00.475Z,44.23
2018-07-16T09:23:29.370Z,43.87
2018-07-16T09:25:58.215Z,44.26
2018-07-16T09:28:27.066Z,44.31
2018-07-16T09:31:13.439Z,44.21
2018-07-16T09:33:42.302Z,44.56
2018-07-16T09:36:11.118Z,44.10
2018-07-16T09:38:39.963Z,44.21
2018-07-16T09:41:08.761Z,44.12
2018-07-16T09:43:37.622Z,44.31
2018-07-16T09:46:06.488Z,44.61
2018-07-16T09:48:35.329Z,44.69
2018-07-16T09:51:04.171Z,44.43
2018-07-16T09:53:33.001Z,44.27
2018-07-16T09:56:01.890Z,44.47
2018-07-16T09:58:30.660Z,44.30
2018-07-16T10:01:16.986Z,44.37
2018-07-16T10:03:45.795Z,44.19
2018-07-16T10:06:14.628Z,43.86
2018-07-16T10:08:43.467Z,43.96
2018-07-16T10:11:12.320Z,44.43
2018-07-16T10:13:41.329Z,44.31
2018-07-16T10:16:10.167Z,43.71
2018-07-16T10:18:38.988Z,43.62
2018-07-16T10:21:07.821Z,43.24
2018-07-16T10:23:36.756Z,44.77
2018-07-16T10:26:05.677Z,43.17
2018-07-16T10:28:34.534Z,43.56
2018-07-16T10:31:03.337Z,43.43
2018-07-16T10:33:32.171Z,43.83
2018-07-16T10:36:02.196Z,44.53
2018-07-16T10:38:31.005Z,44.31
2018-07-16T10:40:59.841Z,44.39
2018-07-16T10:43:28.778Z,43.70
2018-07-16T10:45:57.582Z,43.39
2018-07-16T10:48:26.423Z,43.53
2018-07-16T10:50:55.274Z,41.90
2018-07-16T10:53:24.170Z,41.39
2018-07-16T10:55:52.991Z,40.79
2018-07-16T10:58:21.968Z,40.66
2018-07-16T11:00:50.804Z,40.98
2018-07-16T11:03:19.621Z,41.20
2018-07-16T11:05:48.443Z,42.08
2018-07-16T11:08:17.295Z,42.68
2018-07-16T11:10:46.118Z,42.66
2018-07-16T11:13:14.959Z,42.45
2018-07-16T11:15:43.798Z,42.52
2018-07-16T11:18:12.666Z,42.50
2018-07-16T11:20:41.584Z,42.08
2018-07-16T11:23:10.493Z,42.11
2018-07-16T11:25:39.307Z,43.68
2018-07-16T11:28:08.158Z,42.59
2018-07-16T11:30:36.959Z,41.25
2018-07-16T11:33:05.785Z,41.43
2018-07-16T11:35:34.699Z,41.61
2018-07-16T11:38:03.430Z,41.05
2018-07-16T11:40:32.299Z,40.93
2018-07-16T11:43:04.160Z,40.66
2018-07-16T11:45:33.019Z,40.10
2018-07-16T11:48:01.835Z,42.67
2018-07-16T11:50:30.673Z,41.72
2018-07-16T11:52:59.502Z,41.44
2018-07-16T11:55:28.587Z,41.55
2018-07-16T11:57:57.441Z,41.41
2018-07-16T12:00:26.266Z,41.71
2018-07-16T12:02:55.106Z,41.58
2018-07-16T12:05:23.945Z,41.54
2018-07-16T12:07:52.748Z,40.97
2018-07-16T12:10:21.565Z,40.07
2018-07-16T12:12:50.413Z,39.76
2018-07-16T12:15:19.257Z,39.02
2018-07-16T12:17:48.095Z,38.57
2018-07-16T12:20:16.920Z,38.27
2018-07-16T12:22:45.774Z,37.77
2018-07-16T12:25:14.600Z,37.26
2018-07-16T12:27:43.679Z,36.76
2018-07-16T12:30:12.479Z,36.94
2018-07-16T12:32:41.385Z,37.10
2018-07-16T12:35:10.144Z,37.15
2018-07-16T12:37:39.022Z,36.89
2018-07-16T12:40:07.844Z,36.38
2018-07-16T12:42:36.697Z,35.77
2018-07-16T12:45:06.101Z,35.46
2018-07-16T12:47:34.923Z,35.53
2018-07-16T12:50:58.217Z,35.35
2018-07-16T12:53:27.048Z,35.42
2018-07-16T12:55:55.902Z,35.70
2018-07-16T12:58:24.771Z,36.00
2018-07-16T13:00:53.594Z,36.02
2018-07-16T13:03:22.428Z,36.07
2018-07-16T13:05:51.256Z,35.92
2018-07-16T13:08:20.129Z,35.62
2018-07-16T13:10:48.950Z,35.28
2018-07-16T13:13:17.984Z,35.39
2018-07-16T13:15:46.784Z,35.36
2018-07-16T13:18:15.622Z,35.42
2018-07-16T13:20:44.453Z,35.42
2018-07-16T13:23:13.320Z,35.49
2018-07-16T13:25:42.143Z,35.34
2018-07-16T13:28:10.972Z,34.72
2018-07-16T13:30:39.810Z,34.64
2018-07-16T13:33:08.663Z,34.52
2018-07-16T13:35:37.632Z,34.62
2018-07-16T13:38:06.476Z,34.77
2018-07-16T13:40:35.321Z,34.88
2018-07-16T13:43:04.217Z,34.84
2018-07-16T13:45:33.045Z,34.91
2018-07-16T13:48:01.921Z,34.88
2018-07-16T13:50:30.756Z,34.64
2018-07-16T13:52:59.632Z,34.36
2018-07-16T13:55:28.468Z,34.12
2018-07-16T13:58:03.500Z,33.84
2018-07-16T14:00:32.598Z,33.66
2018-07-16T14:03:01.723Z,33.53
2018-07-16T14:05:30.535Z,33.47
2018-07-16T14:07:59.654Z,33.71
2018-07-16T14:10:28.493Z,33.83
2018-07-16T14:12:57.340Z,34.05
2018-07-16T14:15:26.217Z,34.08
2018-07-16T14:17:55.066Z,34.12
2018-07-16T14:20:24.133Z,34.22
2018-07-16T14:22:52.979Z,34.43
2018-07-16T14:25:21.833Z,34.55
2018-07-16T14:27:50.673Z,34.68
2018-07-16T14:30:19.519Z,34.66
2018-07-16T14:32:48.380Z,34.44
2018-07-16T14:35:17.223Z,34.38
2018-07-16T14:37:46.065Z,34.39
2018-07-16T14:40:14.909Z,34.49
2018-07-16T14:42:43.815Z,34.45
2018-07-16T14:45:12.623Z,34.42
2018-07-16T14:47:41.537Z,34.25
2018-07-16T14:50:10.289Z,34.06
2018-07-16T14:52:39.154Z,33.98
2018-07-16T14:55:07.981Z,33.75
2018-07-16T14:57:36.823Z,33.59
2018-07-16T15:00:05.664Z,33.47
2018-07-16T15:02:34.517Z,33.36
2018-07-16T15:05:03.363Z,33.43
2018-07-16T15:07:32.310Z,33.40
2018-07-16T15:10:01.242Z,33.40
2018-07-16T15:12:30.051Z,33.42
2018-07-16T15:14:58.896Z,33.32
2018-07-16T15:17:27.720Z,33.20
2018-07-16T15:19:56.669Z,33.08
2018-07-16T15:22:25.391Z,33.03
2018-07-16T15:24:54.244Z,33.07
2018-07-16T15:27:26.315Z,33.10
2018-07-16T15:29:55.164Z,33.26
2018-07-16T15:32:23.994Z,33.23
2018-07-16T15:34:52.837Z,33.26
2018-07-16T15:37:21.670Z,33.36
2018-07-16T15:39:50.496Z,33.33
2018-07-16T15:42:19.340Z,33.38
2018-07-16T15:44:48.178Z,33.49
2018-07-16T15:47:17.024Z,33.38
2018-07-16T15:54:43.422Z,33.47
2018-07-16T15:57:12.276Z,33.47
2018-07-16T15:59:41.116Z,33.42
2018-07-16T16:02:09.957Z,33.30
2018-07-16T16:04:38.810Z,33.40
2018-07-16T16:07:08.187Z,33.43
2018-07-16T16:09:38.625Z,33.45
2018-07-16T16:12:07.593Z,33.46
2018-07-16T16:14:36.631Z,33.40
2018-07-16T16:17:13.946Z,33.16
2018-07-16T16:19:42.804Z,32.92
2018-07-16T16:22:11.653Z,32.82
2018-07-16T16:24:40.461Z,32.87
2018-07-16T16:27:09.272Z,32.86
2018-07-16T16:29:38.118Z,32.92
2018-07-16T16:32:07.228Z,32.93
2018-07-16T16:34:36.107Z,32.93
2018-07-16T16:37:05.212Z,32.92
2018-07-16T16:39:35.318Z,32.68
2018-07-16T16:42:04.171Z,32.57
2018-07-16T16:44:33.001Z,32.45
2018-07-16T16:47:01.846Z,32.27
2018-07-16T16:49:30.695Z,32.14
2018-07-16T16:51:59.561Z,32.01
2018-07-16T16:54:28.442Z,31.89
2018-07-16T16:56:57.274Z,31.74
2018-07-16T16:59:26.129Z,31.65
2018-07-16T17:02:53.035Z,31.70
2018-07-16T17:05:21.877Z,31.89
2018-07-16T17:07:50.755Z,31.88
2018-07-16T17:10:19.623Z,31.83
2018-07-16T17:12:48.451Z,31.81
2018-07-16T17:15:17.325Z,31.77
2018-07-16T17:17:46.169Z,31.84
2018-07-16T17:20:14.994Z,31.93
2018-07-16T17:22:43.850Z,31.89
2018-07-16T17:25:21.399Z,31.96
2018-07-16T17:27:50.229Z,32.02
2018-07-16T17:30:19.084Z,32.05
2018-07-16T17:32:47.913Z,31.99
2018-07-16T17:35:16.749Z,31.93
2018-07-16T17:37:45.591Z,31.92
2018-07-16T17:40:14.466Z,31.86
2018-07-16T17:42:43.271Z,31.78
2018-07-16T17:45:12.097Z,31.72
2018-07-16T17:47:48.064Z,31.67
2018-07-16T17:50:16.890Z,31.60
2018-07-16T17:52:45.821Z,31.56
2018-07-16T17:55:14.692Z,31.51
2018-07-16T17:57:43.532Z,31.48
2018-07-16T18:00:12.392Z,31.41
2018-07-16T18:02:41.253Z,31.40
2018-07-16T18:05:10.091Z,31.36
2018-07-16T18:07:38.930Z,31.17
2018-07-16T18:10:07.772Z,31.10
2018-07-16T18:12:36.601Z,31.01
2018-07-16T18:15:05.449Z,30.97
2018-07-16T18:17:34.315Z,30.93
2018-07-16T18:20:03.123Z,30.86
2018-07-16T18:22:31.943Z,30.81
2018-07-16T18:25:00.817Z,30.79
2018-07-16T18:27:29.639Z,30.70
2018-07-16T18:29:58.587Z,30.63
2018-07-16T18:32:27.491Z,30.53
2018-07-16T18:34:56.314Z,30.42
2018-07-16T18:37:25.168Z,30.35
2018-07-16T18:39:54.027Z,30.30
2018-07-16T18:42:22.855Z,30.27
2018-07-16T18:44:51.667Z,30.20
2018-07-16T18:47:20.491Z,30.14
2018-07-16T18:49:49.314Z,30.06
2018-07-16T18:52:18.195Z,29.94
2018-07-16T18:55:53.497Z,29.79
2018-07-16T18:58:22.355Z,29.68
2018-07-16T19:00:51.152Z,29.61
2018-07-16T19:03:20.032Z,29.53
2018-07-16T19:05:48.878Z,29.42
2018-07-16T19:08:17.710Z,29.30
2018-07-16T19:10:46.584Z,29.21
2018-07-16T19:13:15.444Z,29.13
2018-07-16T19:15:44.263Z,29.05
2018-07-16T19:18:13.084Z,28.96
2018-07-16T19:20:41.936Z,28.87
2018-07-16T19:23:10.769Z,28.79
2018-07-16T19:25:39.607Z,28.68
2018-07-16T19:28:08.430Z,28.57
2018-07-16T19:30:37.274Z,28.47
2018-07-16T19:33:06.124Z,28.36
2018-07-16T19:35:35.066Z,28.29
2018-07-16T19:38:03.820Z,28.20
2018-07-16T19:40:35.754Z,28.02
2018-07-16T19:43:04.693Z,27.86
2018-07-16T19:45:33.538Z,27.70
2018-07-16T19:48:02.356Z,27.58
2018-07-16T19:50:31.200Z,27.39
2018-07-16T19:53:00.039Z,27.26
2018-07-16T19:55:28.894Z,27.12
2018-07-16T19:57:57.772Z,26.98
2018-07-16T20:00:26.635Z,26.87
2018-07-16T20:02:55.471Z,26.74
2018-07-16T20:05:24.208Z,26.64
2018-07-16T20:07:53.045Z,26.56
2018-07-16T20:10:21.888Z,26.45
2018-07-16T20:12:50.726Z,26.35
2018-07-16T20:15:20.091Z,26.34
2018-07-16T20:17:48.886Z,26.27
2018-07-16T20:20:17.772Z,26.21
2018-07-16T20:22:49.576Z,26.03
2018-07-16T20:25:18.425Z,25.95
2018-07-16T20:27:47.245Z,25.80
2018-07-16T20:30:16.068Z,25.58
2018-07-16T20:32:44.916Z,25.43
2018-07-16T20:35:13.755Z,25.38
2018-07-16T20:37:42.594Z,25.27
2018-07-16T20:40:11.459Z,25.29
2018-07-16T20:42:40.281Z,25.45
2018-07-16T20:46:04.396Z,25.22
2018-07-16T20:48:33.235Z,25.00
2018-07-16T20:51:02.067Z,24.90
2018-07-16T20:53:30.907Z,24.80
2018-07-16T20:55:59.750Z,24.70
2018-07-16T20:58:28.600Z,24.72
2018-07-16T21:00:57.427Z,24.74
2018-07-16T21:03:26.271Z,24.73
2018-07-16T21:05:55.108Z,24.60
2018-07-16T21:08:23.936Z,24.42
2018-07-16T21:10:52.763Z,24.28
2018-07-16T21:13:21.592Z,24.22
2018-07-16T21:15:50.438Z,24.07
2018-07-16T21:18:19.304Z,24.11
2018-07-16T21:20:48.109Z,24.12
2018-07-16T21:23:16.935Z,24.04
2018-07-16T21:25:45.774Z,24.18
2018-07-16T21:28:14.626Z,23.92
2018-07-16T21:30:43.483Z,23.85
2018-07-16T21:33:12.368Z,23.75
2018-07-16T21:35:41.228Z,23.67
2018-07-16T21:38:10.066Z,23.60
2018-07-16T21:40:39.047Z,23.56
2018-07-16T21:43:07.747Z,23.50
2018-07-16T21:45:36.573Z,23.43
2018-07-16T21:48:05.416Z,23.36
2018-07-16T21:50:34.322Z,23.32
2018-07-16T21:53:04.729Z,23.20
2018-07-16T21:55:33.608Z,23.15
2018-07-16T21:58:02.402Z,23.35
2018-07-16T22:00:31.908Z,23.04
2018-07-16T22:03:01.340Z,22.94
2018-07-16T22:05:30.583Z,22.93
2018-07-16T22:08:00.160Z,22.92
2018-07-16T22:10:29.016Z,22.94
2018-07-16T22:19:58.497Z,22.73
2018-07-16T22:22:27.585Z,22.67
2018-07-16T22:24:56.442Z,22.68
2018-07-16T22:27:25.278Z,22.66
2018-07-16T22:29:54.105Z,22.68
2018-07-16T22:32:22.940Z,22.62
2018-07-16T22:34:53.152Z,22.62
2018-07-16T22:37:22.033Z,22.51
2018-07-16T22:39:50.857Z,22.47
2018-07-16T22:42:19.714Z,22.38
2018-07-16T22:44:48.571Z,22.21
2018-07-16T22:47:17.426Z,22.12
2018-07-16T22:49:46.265Z,22.23
2018-07-16T22:52:15.085Z,22.35
2018-07-16T22:54:43.924Z,22.41
2018-07-16T22:57:16.302Z,22.32
2018-07-16T22:59:45.150Z,22.40
2018-07-16T23:02:14.007Z,22.46
2018-07-16T23:04:42.838Z,22.53
2018-07-16T23:07:11.705Z,22.80
2018-07-16T23:09:40.590Z,22.68
2018-07-16T23:12:09.545Z,22.66
2018-07-16T23:14:38.404Z,22.63
2018-07-16T23:17:07.241Z,22.62
2018-07-16T23:19:37.513Z,22.58
2018-07-16T23:22:06.546Z,22.48
2018-07-16T23:24:35.399Z,22.43
2018-07-16T23:27:04.248Z,22.44
2018-07-16T23:29:33.106Z,22.48
2018-07-16T23:32:01.943Z,22.47
2018-07-16T23:34:30.813Z,22.43
2018-07-16T23:36:59.639Z,22.41
2018-07-16T23:39:28.487Z,22.38
2018-07-16T23:41:57.500Z,22.39
2018-07-16T23:44:26.314Z,22.35
2018-07-16T23:46:55.163Z,22.64
2018-07-16T23:49:23.983Z,22.41
2018-07-16T23:51:52.866Z,22.36
2018-07-16T23:54:21.694Z,22.35
2018-07-16T23:56:50.525Z,22.38
2018-07-16T23:59:19.366Z,22.37
